createdAt,value
2018-11-07T00:00:17.200Z,99.90
2018-11-07T00:02:46.409Z,99.90
2018-11-07T00:05:16.962Z,99.90
2018-11-07T00:07:46.354Z,99.90
2018-11-07T00:10:15.593Z,99.90
2018-11-07T00:12:45.253Z,99.90
2018-11-07T00:15:15.533Z,99.90
2018-11-07T00:17:44.673Z,99.90
2018-11-07T00:20:13.862Z,99.90
2018-11-07T00:22:43.080Z,99.90
2018-11-07T00:25:12.797Z,99.90
2018-11-07T00:27:42.272Z,99.90
2018-11-07T00:30:12.487Z,99.90
2018-11-07T00:32:41.564Z,99.90
2018-11-07T00:35:11.599Z,99.90
2018-11-07T00:37:41.915Z,99.90
2018-11-07T00:40:11.261Z,99.90
2018-11-07T00:42:40.328Z,99.90
2018-11-07T00:45:11.833Z,99.90
2018-11-07T00:47:42.033Z,99.90
2018-11-07T00:50:14.741Z,99.90
2018-11-07T00:52:45.057Z,99.90
2018-11-07T00:55:14.966Z,99.90
2018-11-07T00:57:44.220Z,99.90
2018-11-07T01:00:17.068Z,99.90
2018-11-07T01:02:46.949Z,99.90
2018-11-07T01:05:16.309Z,99.90
2018-11-07T01:07:46.916Z,99.90
2018-11-07T01:10:16.276Z,99.90
2018-11-07T01:12:45.417Z,99.90
2018-11-07T01:15:14.904Z,99.90
2018-11-07T01:17:44.008Z,99.90
2018-11-07T01:20:14.397Z,99.90
2018-11-07T01:22:44.388Z,99.90
2018-11-07T01:25:13.565Z,99.90
2018-11-07T01:27:42.709Z,99.90
2018-11-07T01:30:13.880Z,99.90
2018-11-07T01:32:43.125Z,99.90
2018-11-07T01:35:12.200Z,99.90
2018-11-07T01:37:41.526Z,99.90
2018-11-07T01:40:13.236Z,99.90
2018-11-07T01:42:43.889Z,99.90
2018-11-07T01:45:13.548Z,99.90
2018-11-07T01:47:42.725Z,99.90
2018-11-07T01:50:13.603Z,99.90
2018-11-07T01:52:42.717Z,99.90
2018-11-07T01:55:12.072Z,99.90
2018-11-07T01:57:41.247Z,99.90
2018-11-07T02:00:12.421Z,99.90
2018-11-07T02:02:43.749Z,99.90
2018-11-07T02:05:13.760Z,99.90
2018-11-07T02:07:43.320Z,99.90
2018-11-07T02:10:13.484Z,99.90
2018-11-07T02:12:42.631Z,99.90
2018-11-07T02:15:12.053Z,99.90
2018-11-07T02:17:41.229Z,99.90
2018-11-07T02:20:11.866Z,99.90
2018-11-07T02:22:41.450Z,99.90
2018-11-07T02:25:10.669Z,99.90
2018-11-07T02:27:40.836Z,99.90
2018-11-07T02:30:13.566Z,99.90
2018-11-07T02:32:42.673Z,99.90
2018-11-07T02:35:12.301Z,99.90
2018-11-07T02:37:42.446Z,99.90
2018-11-07T02:40:11.516Z,99.90
2018-11-07T02:42:40.629Z,99.90
2018-11-07T02:45:10.208Z,99.90
2018-11-07T02:47:40.287Z,99.90
2018-11-07T02:50:10.653Z,99.90
2018-11-07T02:52:40.097Z,99.90
2018-11-07T02:55:09.517Z,99.90
2018-11-07T02:57:38.787Z,99.90
2018-11-07T03:00:10.809Z,99.90
2018-11-07T03:02:40.859Z,99.90
2018-11-07T03:05:10.717Z,99.90
2018-11-07T03:07:40.909Z,99.90
2018-11-07T03:10:12.014Z,99.90
2018-11-07T03:12:41.554Z,99.90
2018-11-07T03:15:11.115Z,99.90
2018-11-07T03:17:40.306Z,99.90
2018-11-07T03:20:11.505Z,99.90
2018-11-07T03:22:40.709Z,99.90
2018-11-07T03:25:10.561Z,99.90
2018-11-07T03:27:39.775Z,99.90
2018-11-07T03:30:10.221Z,99.90
2018-11-07T03:32:39.337Z,99.90
2018-11-07T03:35:12.633Z,99.90
2018-11-07T03:37:41.828Z,99.90
2018-11-07T03:40:11.126Z,99.90
2018-11-07T03:42:40.680Z,99.90
2018-11-07T03:45:09.624Z,99.90
2018-11-07T03:47:38.716Z,99.90
2018-11-07T03:50:07.897Z,99.90
2018-11-07T03:52:37.098Z,99.90
2018-11-07T03:55:06.753Z,99.90
2018-11-07T03:57:36.604Z,99.90
2018-11-07T04:00:08.412Z,99.90
2018-11-07T04:02:37.801Z,99.90
2018-11-07T04:05:09.111Z,99.90
2018-11-07T04:07:38.460Z,99.90
2018-11-07T04:10:07.597Z,99.90
2018-11-07T04:12:36.729Z,99.90
2018-11-07T04:15:06.660Z,99.90
2018-11-07T04:17:35.745Z,99.90
2018-11-07T04:20:06.454Z,99.90
2018-11-07T04:22:35.548Z,99.90
2018-11-07T04:25:05.042Z,99.90
2018-11-07T04:27:34.605Z,99.90
2018-11-07T04:30:05.025Z,99.90
2018-11-07T04:32:34.092Z,99.90
2018-11-07T04:35:03.269Z,99.90
2018-11-07T04:37:33.432Z,99.90
2018-11-07T04:40:02.505Z,99.90
2018-11-07T04:42:31.757Z,99.90
2018-11-07T04:45:00.917Z,99.90
2018-11-07T04:47:30.013Z,99.90
2018-11-07T04:49:59.177Z,99.90
2018-11-07T04:52:28.358Z,99.90
2018-11-07T04:54:58.037Z,99.90
2018-11-07T04:57:27.487Z,99.90
2018-11-07T04:59:56.666Z,99.90
2018-11-07T05:02:25.697Z,99.90
2018-11-07T05:04:54.824Z,99.90
2018-11-07T05:07:24.634Z,99.90
2018-11-07T05:09:53.880Z,99.90
2018-11-07T05:12:23.533Z,99.90
2018-11-07T05:14:52.888Z,99.90
2018-11-07T05:17:22.013Z,99.90
2018-11-07T05:19:51.197Z,99.90
2018-11-07T05:22:20.270Z,99.90
2018-11-07T05:24:49.385Z,99.90
2018-11-07T05:27:18.538Z,99.90
2018-11-07T05:29:47.945Z,99.90
2018-11-07T05:32:17.173Z,99.90
2018-11-07T05:34:46.445Z,99.90
2018-11-07T05:37:15.638Z,99.90
2018-11-07T05:39:44.769Z,99.90
2018-11-07T05:42:14.476Z,99.90
2018-11-07T05:44:43.993Z,99.90
2018-11-07T05:47:13.121Z,99.90
2018-11-07T05:49:42.193Z,99.90
2018-11-07T05:52:11.390Z,99.90
2018-11-07T05:54:40.465Z,99.90
2018-11-07T05:57:10.123Z,99.90
2018-11-07T05:59:39.260Z,99.90
2018-11-07T06:02:08.409Z,99.90
2018-11-07T06:04:38.029Z,99.90
2018-11-07T06:07:07.364Z,99.90
2018-11-07T06:09:36.497Z,99.90
2018-11-07T06:12:05.817Z,99.90
2018-11-07T06:14:35.080Z,99.90
2018-11-07T06:17:04.193Z,99.90
2018-11-07T06:19:33.376Z,99.90
2018-11-07T06:22:02.578Z,99.90
2018-11-07T06:24:31.761Z,99.90
2018-11-07T06:27:00.914Z,99.90
2018-11-07T06:29:30.076Z,99.90
2018-11-07T06:31:59.221Z,99.90
2018-11-07T06:34:28.368Z,99.90
2018-11-07T06:36:57.537Z,99.90
2018-11-07T06:39:26.640Z,99.90
2018-11-07T06:41:56.241Z,99.90
2018-11-07T06:44:25.463Z,99.90
2018-11-07T06:46:54.601Z,99.90
2018-11-07T06:49:23.831Z,99.90
2018-11-07T06:51:52.962Z,99.90
2018-11-07T06:54:22.500Z,99.90
2018-11-07T06:56:51.697Z,99.90
2018-11-07T06:59:20.891Z,99.90
2018-11-07T07:01:50.112Z,99.90
2018-11-07T07:04:19.413Z,99.90
2018-11-07T07:06:48.729Z,99.90
2018-11-07T07:09:17.881Z,99.90
2018-11-07T07:11:47.035Z,99.90
2018-11-07T07:14:16.424Z,99.90
2018-11-07T07:16:45.569Z,99.90
2018-11-07T07:19:15.241Z,99.90
2018-11-07T07:21:44.494Z,99.90
2018-11-07T07:24:14.140Z,99.90
2018-11-07T07:26:43.591Z,99.90
2018-11-07T07:29:12.772Z,99.90
2018-11-07T07:31:42.460Z,99.90
2018-11-07T07:34:11.619Z,99.90
2018-11-07T07:36:40.992Z,99.90
2018-11-07T07:39:10.688Z,99.90
2018-11-07T07:41:39.877Z,99.90
2018-11-07T07:44:09.381Z,99.90
2018-11-07T07:46:38.541Z,99.90
2018-11-07T07:49:07.793Z,99.30
2018-11-07T07:51:36.958Z,95.60
2018-11-07T07:54:06.331Z,93.00
2018-11-07T07:56:35.565Z,88.30
2018-11-07T07:59:05.170Z,83.40
2018-11-07T08:01:34.503Z,76.00
2018-11-07T08:04:03.609Z,73.50
2018-11-07T08:06:35.573Z,79.70
2018-11-07T08:09:07.940Z,82.20
2018-11-07T08:11:37.136Z,71.50
2018-11-07T08:14:07.075Z,66.90
2018-11-07T08:16:36.178Z,62.30
2018-11-07T08:19:05.849Z,57.50
2018-11-07T08:21:35.677Z,55.40
2018-11-07T08:24:04.926Z,52.80
2018-11-07T08:26:34.529Z,51.00
2018-11-07T08:29:03.703Z,49.60
2018-11-07T08:31:33.848Z,48.90
2018-11-07T08:34:03.665Z,48.20
2018-11-07T08:36:33.062Z,48.30
2018-11-07T08:39:02.701Z,49.10
2018-11-07T08:41:31.815Z,48.20
2018-11-07T08:44:01.004Z,48.50
2018-11-07T08:46:30.113Z,49.50
2018-11-07T08:48:59.362Z,51.30
2018-11-07T08:51:28.523Z,55.40
2018-11-07T08:53:57.757Z,51.80
2018-11-07T08:56:26.961Z,47.80
2018-11-07T08:58:56.093Z,46.70
2018-11-07T09:01:25.360Z,44.60
2018-11-07T09:03:54.388Z,43.60
2018-11-07T09:06:23.714Z,42.60
2018-11-07T09:08:52.888Z,42.80
2018-11-07T09:11:22.087Z,41.90
2018-11-07T09:13:51.212Z,40.60
2018-11-07T09:16:21.009Z,40.40
2018-11-07T09:18:51.509Z,40.50
2018-11-07T09:21:20.693Z,39.60
2018-11-07T09:23:49.977Z,39.20
2018-11-07T09:26:19.273Z,41.50
2018-11-07T09:28:48.421Z,40.40
2018-11-07T09:31:17.621Z,39.40
2018-11-07T09:33:46.728Z,42.10
2018-11-07T09:36:15.919Z,41.90
2018-11-07T09:38:45.185Z,42.80
2018-11-07T09:41:14.369Z,40.20
2018-11-07T09:43:44.077Z,41.00
2018-11-07T09:46:13.273Z,42.70
2018-11-07T09:48:42.421Z,45.60
2018-11-07T09:51:11.570Z,46.80
2018-11-07T09:53:41.083Z,43.80
2018-11-07T09:56:10.317Z,40.90
2018-11-07T09:58:39.489Z,38.20
2018-11-07T10:01:08.644Z,38.50
2018-11-07T10:03:37.810Z,38.20
2018-11-07T10:06:06.961Z,37.20
2018-11-07T10:08:36.361Z,37.10
2018-11-07T10:11:06.685Z,38.30
2018-11-07T10:13:35.975Z,37.70
2018-11-07T10:16:05.179Z,36.80
2018-11-07T10:18:34.333Z,36.80
2018-11-07T10:21:03.522Z,37.70
2018-11-07T10:23:32.877Z,38.40
2018-11-07T10:26:02.601Z,37.30
2018-11-07T10:28:31.878Z,37.50
2018-11-07T10:31:00.858Z,39.50
2018-11-07T10:33:30.076Z,40.50
2018-11-07T10:35:59.313Z,40.20
2018-11-07T10:38:28.820Z,40.00
2018-11-07T10:40:57.969Z,40.50
2018-11-07T10:43:27.545Z,39.60
2018-11-07T10:45:56.786Z,38.10
2018-11-07T10:48:25.952Z,40.30
2018-11-07T10:50:55.238Z,42.50
2018-11-07T10:53:24.341Z,43.10
2018-11-07T10:55:53.522Z,43.10
2018-11-07T10:58:22.777Z,45.50
2018-11-07T11:00:57.202Z,47.40
2018-11-07T11:03:29.901Z,49.40
2018-11-07T11:05:59.482Z,51.20
2018-11-07T11:08:28.617Z,52.60
2018-11-07T11:10:57.821Z,53.80
2018-11-07T11:13:27.225Z,54.00
2018-11-07T11:15:56.341Z,54.00
2018-11-07T11:18:25.485Z,54.60
2018-11-07T11:20:54.922Z,53.90
2018-11-07T11:23:24.117Z,53.60
2018-11-07T11:25:53.368Z,53.20
2018-11-07T11:28:22.529Z,52.30
2018-11-07T11:30:52.113Z,52.30
2018-11-07T11:33:21.235Z,52.20
2018-11-07T11:35:51.193Z,50.80
2018-11-07T11:38:20.886Z,50.30
2018-11-07T11:40:50.153Z,48.40
2018-11-07T11:43:19.645Z,49.10
2018-11-07T11:45:48.728Z,50.10
2018-11-07T11:48:17.893Z,50.50
2018-11-07T11:50:47.564Z,52.20
2018-11-07T11:53:16.793Z,52.40
2018-11-07T11:55:46.265Z,52.60
2018-11-07T11:58:15.411Z,51.30
2018-11-07T12:00:44.549Z,50.00
2018-11-07T12:03:13.671Z,49.00
2018-11-07T12:05:42.897Z,48.70
2018-11-07T12:08:12.145Z,49.00
2018-11-07T12:10:41.257Z,50.60
2018-11-07T12:13:10.436Z,50.90
2018-11-07T12:15:39.525Z,51.10
2018-11-07T12:18:09.283Z,51.90
2018-11-07T12:20:38.416Z,52.00
2018-11-07T12:23:07.733Z,52.80
2018-11-07T12:25:36.946Z,53.50
2018-11-07T12:28:06.485Z,54.30
2018-11-07T12:30:36.645Z,53.80
2018-11-07T12:33:05.859Z,51.90
2018-11-07T12:35:35.549Z,52.60
2018-11-07T12:38:04.890Z,52.00
2018-11-07T12:40:34.028Z,51.30
2018-11-07T12:43:03.153Z,51.00
2018-11-07T12:45:32.746Z,52.40
2018-11-07T12:48:01.937Z,53.50
2018-11-07T12:50:31.281Z,54.60
2018-11-07T12:53:00.533Z,54.80
2018-11-07T12:55:29.640Z,56.50
2018-11-07T12:57:58.951Z,57.80
2018-11-07T13:00:28.413Z,58.10
2018-11-07T13:02:57.641Z,58.50
2018-11-07T13:05:27.230Z,58.80
2018-11-07T13:07:57.349Z,58.90
2018-11-07T13:10:26.497Z,59.00
2018-11-07T13:12:55.963Z,59.10
2018-11-07T13:15:25.169Z,58.60
2018-11-07T13:17:54.433Z,58.20
2018-11-07T13:20:24.917Z,57.40
2018-11-07T13:22:54.670Z,57.90
2018-11-07T13:25:24.691Z,58.40
2018-11-07T13:27:54.329Z,60.60
2018-11-07T13:30:23.812Z,63.30
2018-11-07T13:32:53.412Z,64.30
2018-11-07T13:35:22.609Z,64.10
2018-11-07T13:37:52.633Z,64.70
2018-11-07T13:40:22.793Z,66.30
2018-11-07T13:42:52.061Z,66.80
2018-11-07T13:45:22.347Z,66.70
2018-11-07T13:47:52.625Z,68.60
2018-11-07T13:50:22.954Z,68.60
2018-11-07T13:52:52.209Z,70.10
2018-11-07T13:55:21.473Z,70.90
2018-11-07T13:57:51.266Z,70.80
2018-11-07T14:00:22.789Z,70.20
2018-11-07T14:02:53.117Z,71.50
2018-11-07T14:05:22.357Z,72.60
2018-11-07T14:07:51.501Z,73.30
2018-11-07T14:10:22.009Z,73.20
2018-11-07T14:12:51.504Z,73.90
2018-11-07T14:15:20.856Z,75.30
2018-11-07T14:17:50.233Z,76.60
2018-11-07T14:20:19.549Z,76.80
2018-11-07T14:22:48.678Z,78.20
2018-11-07T14:25:17.776Z,79.90
2018-11-07T14:27:47.133Z,79.60
2018-11-07T14:30:18.029Z,82.30
2018-11-07T14:32:52.821Z,83.90
2018-11-07T14:35:22.326Z,84.40
2018-11-07T14:37:52.015Z,86.20
2018-11-07T14:40:21.239Z,87.60
2018-11-07T14:42:51.296Z,88.00
2018-11-07T14:45:20.791Z,90.40
2018-11-07T14:47:50.102Z,90.40
2018-11-07T14:50:19.249Z,90.60
2018-11-07T14:52:48.397Z,92.00
2018-11-07T14:55:18.041Z,91.50
2018-11-07T14:57:47.149Z,91.60
2018-11-07T15:00:17.065Z,92.40
2018-11-07T15:02:46.546Z,92.30
2018-11-07T15:05:17.291Z,92.80
2018-11-07T15:07:46.669Z,93.50
2018-11-07T15:10:16.737Z,93.40
2018-11-07T15:12:45.919Z,94.30
2018-11-07T15:15:16.325Z,95.30
2018-11-07T15:17:45.905Z,94.80
2018-11-07T15:20:16.161Z,95.30
2018-11-07T15:22:45.924Z,96.00
2018-11-07T15:25:16.112Z,96.80
2018-11-07T15:27:46.214Z,97.00
2018-11-07T15:30:16.355Z,96.40
2018-11-07T15:32:46.401Z,97.50
2018-11-07T15:35:15.590Z,98.20
2018-11-07T15:37:44.687Z,99.60
2018-11-07T15:40:15.084Z,99.20
2018-11-07T15:42:44.935Z,99.90
2018-11-07T15:45:15.436Z,99.80
2018-11-07T15:47:44.874Z,99.90
2018-11-07T15:50:19.261Z,99.90
2018-11-07T15:52:48.975Z,99.90
2018-11-07T15:55:18.270Z,99.90
2018-11-07T15:57:47.490Z,99.90
2018-11-07T16:00:17.870Z,99.90
2018-11-07T16:02:47.684Z,99.90
2018-11-07T16:05:17.366Z,99.90
2018-11-07T16:07:46.906Z,99.90
2018-11-07T16:10:16.539Z,99.90
2018-11-07T16:12:45.684Z,99.90
2018-11-07T16:15:16.364Z,99.90
2018-11-07T16:17:46.092Z,99.90
2018-11-07T16:20:16.729Z,99.90
2018-11-07T16:22:46.645Z,99.90
2018-11-07T16:25:15.789Z,99.90
2018-11-07T16:27:45.372Z,99.90
2018-11-07T16:30:17.370Z,99.90
2018-11-07T16:32:46.529Z,99.90
2018-11-07T16:35:15.979Z,99.90
2018-11-07T16:37:45.407Z,99.90
2018-11-07T16:40:16.084Z,99.90
2018-11-07T16:42:45.643Z,99.90
2018-11-07T16:45:16.261Z,99.90
2018-11-07T16:47:45.456Z,99.90
2018-11-07T16:50:15.545Z,99.90
2018-11-07T16:52:45.259Z,99.90
2018-11-07T16:55:15.049Z,99.90
2018-11-07T16:57:44.216Z,99.90
2018-11-07T17:00:15.645Z,99.90
2018-11-07T17:02:45.522Z,99.90
2018-11-07T17:05:15.113Z,99.90
2018-11-07T17:07:44.637Z,99.90
2018-11-07T17:10:14.856Z,99.90
2018-11-07T17:12:43.982Z,99.90
2018-11-07T17:15:13.233Z,99.90
2018-11-07T17:17:42.533Z,99.90
2018-11-07T17:20:13.185Z,99.90
2018-11-07T17:22:42.587Z,99.90
2018-11-07T17:25:14.609Z,99.90
2018-11-07T17:27:44.180Z,99.90
2018-11-07T17:30:14.596Z,99.90
2018-11-07T17:32:43.754Z,99.90
2018-11-07T17:35:15.693Z,99.90
2018-11-07T17:37:45.104Z,99.90
2018-11-07T17:40:17.416Z,99.90
2018-11-07T17:42:47.037Z,99.90
2018-11-07T17:45:18.669Z,99.90
2018-11-07T17:47:48.683Z,99.90
2018-11-07T17:50:18.488Z,99.90
2018-11-07T17:52:48.265Z,99.90
2018-11-07T17:55:18.340Z,99.90
2018-11-07T17:57:47.513Z,99.90
2018-11-07T18:00:18.350Z,99.90
2018-11-07T18:02:47.715Z,99.90
2018-11-07T18:05:16.866Z,99.90
2018-11-07T18:07:46.060Z,99.90
2018-11-07T18:10:17.273Z,99.90
2018-11-07T18:12:46.861Z,99.90
2018-11-07T18:15:15.977Z,99.90
2018-11-07T18:17:45.112Z,99.90
2018-11-07T18:20:15.249Z,99.90
2018-11-07T18:22:44.897Z,99.90
2018-11-07T18:25:15.353Z,99.90
2018-11-07T18:27:44.485Z,99.90
2018-11-07T18:30:15.744Z,99.90
2018-11-07T18:32:45.662Z,99.90
2018-11-07T18:35:16.892Z,99.90
2018-11-07T18:37:46.801Z,99.90
2018-11-07T18:40:17.429Z,99.90
2018-11-07T18:42:47.002Z,99.90
2018-11-07T18:45:17.048Z,99.90
2018-11-07T18:47:47.180Z,99.90
2018-11-07T18:50:17.983Z,99.90
2018-11-07T18:52:47.042Z,99.90
2018-11-07T18:55:17.232Z,99.90
2018-11-07T18:57:47.059Z,99.90
2018-11-07T19:00:18.817Z,99.90
2018-11-07T19:02:48.601Z,99.90
2018-11-07T19:05:18.134Z,99.90
2018-11-07T19:07:47.296Z,99.90
2018-11-07T19:10:18.042Z,99.90
2018-11-07T19:12:48.251Z,99.90
2018-11-07T19:15:18.108Z,99.90
2018-11-07T19:17:49.005Z,99.90
2018-11-07T19:20:18.990Z,99.90
2018-11-07T19:22:48.425Z,99.90
2018-11-07T19:25:19.115Z,99.90
2018-11-07T19:27:48.685Z,99.90
2018-11-07T19:30:22.392Z,99.90
2018-11-07T19:32:52.731Z,99.90
2018-11-07T19:35:22.501Z,99.90
2018-11-07T19:37:52.380Z,99.90
2018-11-07T19:40:23.158Z,99.90
2018-11-07T19:42:52.177Z,99.90
2018-11-07T19:45:22.390Z,99.90
2018-11-07T19:47:51.793Z,99.90
2018-11-07T19:50:21.805Z,99.90
2018-11-07T19:52:51.733Z,99.90
2018-11-07T19:55:22.598Z,99.90
2018-11-07T19:57:55.385Z,99.90
2018-11-07T20:00:24.557Z,99.90
2018-11-07T20:02:53.760Z,99.90
2018-11-07T20:05:23.246Z,99.90
2018-11-07T20:07:52.525Z,99.90
2018-11-07T20:10:22.393Z,99.90
2018-11-07T20:12:51.590Z,99.90
2018-11-07T20:15:21.454Z,99.90
2018-11-07T20:17:51.185Z,99.90
2018-11-07T20:20:20.589Z,99.90
2018-11-07T20:22:49.798Z,99.90
2018-11-07T20:25:18.884Z,99.90
2018-11-07T20:27:48.344Z,99.90
2018-11-07T20:30:18.969Z,99.90
2018-11-07T20:32:48.203Z,99.90
2018-11-07T20:35:18.636Z,99.90
2018-11-07T20:37:47.813Z,99.90
2018-11-07T20:40:18.242Z,99.90
2018-11-07T20:42:48.770Z,99.90
2018-11-07T20:45:18.209Z,99.90
2018-11-07T20:47:47.820Z,99.90
2018-11-07T20:50:18.342Z,99.90
2018-11-07T20:52:48.021Z,99.90
2018-11-07T20:55:17.445Z,99.90
2018-11-07T20:57:46.608Z,99.90
2018-11-07T21:00:21.448Z,99.90
2018-11-07T21:02:50.883Z,99.90
2018-11-07T21:05:20.130Z,99.90
2018-11-07T21:07:49.298Z,99.90
2018-11-07T21:10:20.191Z,99.90
2018-11-07T21:12:50.282Z,99.90
2018-11-07T21:15:20.533Z,99.90
2018-11-07T21:17:49.706Z,99.90
2018-11-07T21:20:18.900Z,99.90
2018-11-07T21:22:48.065Z,99.90
2018-11-07T21:25:17.216Z,99.90
2018-11-07T21:27:46.354Z,99.90
2018-11-07T21:30:15.786Z,99.90
2018-11-07T21:32:45.745Z,99.90
2018-11-07T21:35:14.979Z,99.90
2018-11-07T21:37:44.051Z,99.90
2018-11-07T21:40:16.021Z,99.90
2018-11-07T21:42:46.737Z,99.90
2018-11-07T21:45:16.435Z,99.90
2018-11-07T21:47:45.589Z,99.90
2018-11-07T21:50:16.828Z,99.90
2018-11-07T21:52:46.061Z,99.90
2018-11-07T21:55:15.821Z,99.90
2018-11-07T21:57:45.018Z,99.90
2018-11-07T22:00:16.987Z,99.90
2018-11-07T22:02:46.460Z,99.90
2018-11-07T22:05:16.475Z,99.90
2018-11-07T22:07:45.739Z,99.90
2018-11-07T22:10:16.184Z,99.90
2018-11-07T22:12:45.378Z,99.90
2018-11-07T22:15:14.589Z,99.90
2018-11-07T22:17:43.825Z,99.90
2018-11-07T22:20:20.165Z,99.90
2018-11-07T22:22:49.275Z,99.90
2018-11-07T22:25:18.461Z,99.90
2018-11-07T22:27:47.580Z,99.90
2018-11-07T22:30:17.657Z,99.90
2018-11-07T22:32:47.505Z,99.90
2018-11-07T22:35:17.804Z,99.90
2018-11-07T22:37:47.908Z,99.90
2018-11-07T22:40:18.481Z,99.90
2018-11-07T22:42:47.564Z,99.90
2018-11-07T22:45:17.138Z,99.90
2018-11-07T22:47:46.366Z,99.90
2018-11-07T22:50:16.284Z,99.90
2018-11-07T22:52:46.233Z,99.90
2018-11-07T22:55:15.405Z,99.90
2018-11-07T22:57:44.609Z,99.90
2018-11-07T23:00:21.615Z,99.90
2018-11-07T23:02:52.570Z,99.90
2018-11-07T23:05:21.731Z,99.90
2018-11-07T23:07:51.415Z,99.90
2018-11-07T23:10:20.634Z,99.90
2018-11-07T23:12:50.407Z,99.90
2018-11-07T23:15:24.769Z,99.90
2018-11-07T23:17:54.897Z,99.90
2018-11-07T23:20:24.070Z,99.90
2018-11-07T23:22:53.248Z,99.90
2018-11-07T23:25:22.497Z,99.90
2018-11-07T23:27:51.637Z,99.90
2018-11-07T23:30:20.858Z,99.90
2018-11-07T23:32:49.964Z,99.90
2018-11-07T23:35:19.189Z,99.90
2018-11-07T23:37:48.300Z,99.90
2018-11-07T23:40:17.527Z,99.90
2018-11-07T23:42:47.733Z,99.90
2018-11-07T23:45:17.667Z,99.90
2018-11-07T23:47:46.789Z,99.90
2018-11-07T23:50:15.909Z,99.90
2018-11-07T23:52:47.190Z,99.90
2018-11-07T23:55:18.264Z,99.90
2018-11-07T23:57:47.967Z,99.90
